Impacts METAR Board
IDs:

KBOS - Boston/Logan Intl, MA, US

Updated at: 0000 UTC 31 May 2020
Potential Impact None Slight Moderate High
Time 30/12Z 30/13Z 30/14Z 30/15Z 30/16Z 30/17Z 30/18Z 30/19Z 30/20Z 30/21Z 30/22Z 30/23Z 31/00Z
Temp69 72 74 77 77 79 79 80 79 79 78 76
Dewpt65 65 64 54 53 53 51 50 50 50 48 48
Altim29.82 29.82 29.81 29.81 29.80 29.79 29.78 29.78 29.78 29.78 29.79 29.80
VIS10 10 10 10 10 10 10 10 10 10 10 10
CIG250 250 35 250 250 250 -- -- -- -- -- --
CoverBKNBKNBKNBKNBKNBKNFEWFEWFEWFEWFEWFEW
FltCatVFRVFRVFRVFRVFRVFRVFRVFRVFRVFRVFRVFR
WX------------------------
WDir220260270280260240270260280260280250
WSpd12 10 7 12 14 11 8 9 9 8 10 11
WGst-- -- -- 21 21 16 -- -- 16 -- -- --
Raw hourly METARs
KBOS 301154Z 22012KT 10SM FEW011 SCT120 BKN250 21/18 A2982 RMK AO2 SLP096 60009 70009 T02060183 10206 20183 53004
KBOS 301254Z 26010KT 10SM SCT015 SCT130 BKN250 22/18 A2982 RMK AO2 SLP096 T02220183
KBOS 301354Z 27007KT 10SM SCT023 BKN035 BKN250 23/18 A2981 RMK AO2 SLP095 T02330178

KBOS 301554Z 28012G21KT 10SM SCT045 SCT140 BKN250 25/12 A2981 RMK AO2 SLP095 T02500122
KBOS 301654Z 26014G21KT 10SM FEW050 BKN250 25/12 A2980 RMK AO2 SLP091 T02500117
KBOS 301754Z 24011G16KT 10SM FEW055 FEW100 BKN250 26/12 A2979 RMK AO2 SLP087 T02610117 10261 20206 58008
KBOS 301854Z 27008KT 10SM FEW055 FEW250 26/11 A2978 RMK AO2 SLP085 T02610106
KBOS 301954Z 26009KT 10SM FEW060 FEW250 27/10 A2978 RMK AO2 SLP085 T02670100
KBOS 302054Z 28009G16KT 10SM FEW060 FEW250 26/10 A2978 RMK AO2 SLP085 T02610100 55002
KBOS 302154Z 26008KT 10SM FEW065 FEW250 26/10 A2978 RMK AO2 SLP085 T02610100
KBOS 302254Z 28010KT 10SM FEW065 FEW250 26/09 A2979 RMK AO2 SLP088 T02560089
KBOS 302354Z 25011KT 10SM FEW070 FEW110 FEW250 24/09 A2980 RMK AO2 SLP092 T02440089 10267 20244 53007



Page loaded:  00:49 UTC  |   05:49 PM Pacific  |   06:49 PM Mountain  |   07:49 PM Central  |   08:49 PM Eastern

 

ADVISORIES

FORECASTS

FORECASTS

OBSERVATIONS

USER TOOLS

ABOUT US